createdAt,value
2019-05-18T00:00:00.413Z,13.85
2019-05-18T00:02:29.865Z,13.88
2019-05-18T00:05:01.526Z,13.89
2019-05-18T00:07:30.773Z,13.89
2019-05-18T00:10:00.989Z,13.89
2019-05-18T00:12:30.241Z,13.87
2019-05-18T00:14:59.505Z,13.89
2019-05-18T00:17:29.017Z,13.91
2019-05-18T00:19:58.481Z,13.92
2019-05-18T00:22:27.702Z,13.92
2019-05-18T00:24:57.325Z,13.90
2019-05-18T00:27:26.580Z,13.92
2019-05-18T00:29:55.807Z,13.92
2019-05-18T00:32:25.430Z,13.94
2019-05-18T00:34:54.999Z,13.91
2019-05-18T00:37:24.276Z,13.92
2019-05-18T00:39:53.898Z,13.95
2019-05-18T00:42:23.184Z,13.95
2019-05-18T00:44:52.209Z,13.96
2019-05-18T00:47:21.843Z,13.96
2019-05-18T00:49:51.070Z,13.94
2019-05-18T00:52:20.308Z,13.91
2019-05-18T00:54:49.844Z,13.89
2019-05-18T00:57:19.115Z,13.87
2019-05-18T00:59:48.416Z,13.85
2019-05-18T01:02:17.953Z,13.84
2019-05-18T01:04:49.095Z,13.80
2019-05-18T01:07:18.327Z,13.75
2019-05-18T01:09:47.889Z,13.67
2019-05-18T01:12:17.118Z,13.57
2019-05-18T01:14:47.477Z,13.48
2019-05-18T01:17:17.026Z,13.44
2019-05-18T01:19:46.334Z,13.43
2019-05-18T01:22:15.668Z,13.44
2019-05-18T01:24:45.139Z,13.45
2019-05-18T01:27:14.358Z,13.46
2019-05-18T01:29:43.670Z,13.45
2019-05-18T01:32:13.058Z,13.44
2019-05-18T01:34:42.904Z,13.42
2019-05-18T01:37:12.141Z,13.37
2019-05-18T01:39:42.878Z,13.32
2019-05-18T01:42:12.138Z,13.26
2019-05-18T01:44:41.391Z,13.24
2019-05-18T01:47:10.885Z,13.23
2019-05-18T01:49:40.408Z,13.21
2019-05-18T01:52:09.660Z,13.13
2019-05-18T01:54:39.019Z,13.09
2019-05-18T01:57:08.490Z,13.04
2019-05-18T01:59:38.846Z,12.98
2019-05-18T02:02:08.252Z,12.93
2019-05-18T02:04:37.721Z,12.90
2019-05-18T02:07:06.960Z,12.85
2019-05-18T02:09:36.228Z,12.80
2019-05-18T02:12:05.644Z,12.75
2019-05-18T02:14:34.864Z,12.70
2019-05-18T02:17:04.119Z,12.64
2019-05-18T02:19:33.626Z,12.62
2019-05-18T02:22:02.859Z,12.60
2019-05-18T02:24:32.126Z,12.57
2019-05-18T02:27:01.643Z,12.53
2019-05-18T02:29:31.214Z,12.53
2019-05-18T02:32:00.486Z,12.53
2019-05-18T02:34:32.192Z,12.57
2019-05-18T02:37:01.705Z,12.61
2019-05-18T02:39:30.981Z,12.68
2019-05-18T02:42:00.715Z,12.72
2019-05-18T02:44:29.937Z,12.75
2019-05-18T02:46:59.197Z,12.78
2019-05-18T02:49:28.579Z,12.81
2019-05-18T02:51:57.827Z,12.83
2019-05-18T02:54:27.117Z,12.89
2019-05-18T02:56:56.435Z,12.92
2019-05-18T02:59:25.711Z,12.95
2019-05-18T03:01:54.976Z,12.97
2019-05-18T03:04:25.497Z,12.99
2019-05-18T03:06:55.215Z,12.98
2019-05-18T03:09:24.451Z,12.99
2019-05-18T03:11:54.051Z,13.02
2019-05-18T03:14:23.379Z,13.07
2019-05-18T03:16:52.722Z,13.11
2019-05-18T03:19:22.087Z,13.15
2019-05-18T03:21:51.371Z,13.16
2019-05-18T03:24:20.627Z,13.15
2019-05-18T03:26:50.040Z,13.12
2019-05-18T03:29:19.339Z,13.06
2019-05-18T03:31:48.649Z,12.98
2019-05-18T03:34:18.126Z,12.94
2019-05-18T03:36:47.551Z,12.92
2019-05-18T03:39:16.822Z,12.95
2019-05-18T03:41:46.123Z,13.03
2019-05-18T03:44:15.446Z,13.10
2019-05-18T03:46:44.681Z,13.16
2019-05-18T03:49:25.991Z,13.23
2019-05-18T03:51:45.130Z,13.27
2019-05-18T03:54:16.744Z,13.33
2019-05-18T03:56:46.078Z,13.37
2019-05-18T03:59:15.302Z,13.35
2019-05-18T04:01:44.692Z,13.36
2019-05-18T04:04:17.914Z,13.42
2019-05-18T04:06:45.068Z,13.47
2019-05-18T04:09:15.843Z,13.47
2019-05-18T04:11:45.090Z,13.46
2019-05-18T04:14:14.439Z,13.49
2019-05-18T04:16:43.720Z,13.55
2019-05-18T04:19:12.937Z,13.59
2019-05-18T04:21:42.629Z,13.63
2019-05-18T04:24:11.880Z,13.69
2019-05-18T04:26:41.139Z,13.76
2019-05-18T04:29:10.656Z,13.77
2019-05-18T04:31:39.925Z,13.78
2019-05-18T04:34:09.159Z,13.84
2019-05-18T04:36:38.951Z,13.87
2019-05-18T04:39:08.224Z,13.88
2019-05-18T04:41:38.022Z,13.92
2019-05-18T04:44:07.456Z,13.97
2019-05-18T04:46:36.755Z,14.01
2019-05-18T04:49:07.088Z,14.06
2019-05-18T04:51:36.481Z,14.08
2019-05-18T04:54:06.870Z,14.13
2019-05-18T04:56:36.201Z,14.14
2019-05-18T04:59:05.718Z,14.18
2019-05-18T05:01:35.029Z,14.20
2019-05-18T05:04:05.204Z,14.19
2019-05-18T05:06:34.433Z,14.24
2019-05-18T05:09:05.647Z,14.32
2019-05-18T05:11:34.968Z,14.39
2019-05-18T05:14:05.473Z,14.46
2019-05-18T05:16:34.754Z,14.61
2019-05-18T05:19:04.308Z,14.61
2019-05-18T05:21:33.518Z,14.74
2019-05-18T05:24:02.760Z,14.81
2019-05-18T05:26:32.101Z,14.84
2019-05-18T05:29:01.342Z,14.87
2019-05-18T05:31:30.637Z,14.91
2019-05-18T05:34:01.478Z,14.91
2019-05-18T05:36:30.733Z,14.92
2019-05-18T05:39:02.708Z,14.90
2019-05-18T05:41:31.936Z,14.93
2019-05-18T05:44:01.308Z,14.95
2019-05-18T05:46:30.807Z,15.00
2019-05-18T05:49:00.032Z,15.08
2019-05-18T05:51:29.282Z,15.18
2019-05-18T05:53:58.913Z,15.28
2019-05-18T05:56:28.153Z,15.32
2019-05-18T05:58:57.464Z,15.38
2019-05-18T06:01:26.916Z,15.42
2019-05-18T06:03:56.149Z,15.44
2019-05-18T06:06:25.383Z,15.42
2019-05-18T06:08:55.128Z,15.46
2019-05-18T06:11:24.533Z,15.44
2019-05-18T06:13:54.086Z,15.41
2019-05-18T06:16:23.531Z,15.32
2019-05-18T06:18:53.907Z,15.25
2019-05-18T06:21:23.158Z,15.23
2019-05-18T06:23:52.662Z,15.24
2019-05-18T06:26:24.241Z,15.27
2019-05-18T06:28:52.998Z,15.28
2019-05-18T06:31:23.219Z,15.21
2019-05-18T06:33:52.956Z,15.25
2019-05-18T06:36:22.276Z,15.32
2019-05-18T06:38:51.525Z,15.37
2019-05-18T06:41:20.753Z,15.43
2019-05-18T06:43:50.137Z,15.48
2019-05-18T06:46:19.554Z,15.53
2019-05-18T06:48:48.776Z,15.62
2019-05-18T06:51:18.245Z,15.67
2019-05-18T06:53:48.828Z,15.71
2019-05-18T06:56:18.710Z,15.75
2019-05-18T06:58:49.074Z,15.84
2019-05-18T07:01:19.209Z,15.98
2019-05-18T07:03:48.474Z,16.07
2019-05-18T07:06:18.155Z,16.17
2019-05-18T07:08:47.687Z,16.25
2019-05-18T07:11:16.910Z,16.29
2019-05-18T07:13:46.425Z,16.31
2019-05-18T07:16:15.680Z,16.34
2019-05-18T07:18:44.897Z,16.37
2019-05-18T07:21:22.423Z,16.42
2019-05-18T07:23:47.530Z,16.50
2019-05-18T07:26:16.744Z,16.60
2019-05-18T07:28:46.347Z,16.68
2019-05-18T07:31:15.640Z,16.71
2019-05-18T07:33:44.862Z,16.74
2019-05-18T07:36:14.264Z,16.76
2019-05-18T07:38:43.614Z,16.84
2019-05-18T07:41:12.854Z,17.04
2019-05-18T07:43:42.182Z,17.14
2019-05-18T07:46:12.324Z,17.32
2019-05-18T07:48:41.554Z,17.71
2019-05-18T07:51:10.956Z,18.11
2019-05-18T07:53:40.207Z,18.30
2019-05-18T07:56:09.423Z,18.44
2019-05-18T07:58:41.417Z,18.86
2019-05-18T08:01:10.669Z,19.29
2019-05-18T08:03:39.903Z,19.64
2019-05-18T08:06:09.310Z,19.92
2019-05-18T08:08:38.631Z,20.22
2019-05-18T08:11:07.810Z,20.57
2019-05-18T08:13:37.119Z,20.71
2019-05-18T08:16:06.464Z,20.74
2019-05-18T08:18:35.938Z,20.93
2019-05-18T08:21:05.265Z,21.35
2019-05-18T08:23:34.518Z,21.80
2019-05-18T08:26:03.842Z,22.19
2019-05-18T08:28:33.139Z,22.43
2019-05-18T08:31:02.744Z,22.77
2019-05-18T08:33:32.375Z,23.13
2019-05-18T08:36:01.835Z,23.58
2019-05-18T08:38:31.112Z,23.89
2019-05-18T08:41:00.333Z,23.91
2019-05-18T08:43:29.658Z,23.67
2019-05-18T08:46:00.103Z,23.27
2019-05-18T08:48:29.318Z,22.82
2019-05-18T08:51:01.222Z,22.53
2019-05-18T08:53:30.482Z,22.24
2019-05-18T08:56:00.950Z,22.20
2019-05-18T08:58:30.307Z,22.30
2019-05-18T09:00:59.591Z,22.59
2019-05-18T09:03:28.826Z,22.92
2019-05-18T09:05:58.161Z,23.07
2019-05-18T09:08:27.509Z,23.14
2019-05-18T09:10:56.758Z,23.12
2019-05-18T09:13:26.197Z,23.42
2019-05-18T09:15:55.517Z,23.95
2019-05-18T09:18:24.882Z,24.37
2019-05-18T09:20:54.574Z,24.45
2019-05-18T09:23:23.849Z,24.42
2019-05-18T09:25:53.091Z,24.76
2019-05-18T09:28:23.329Z,25.27
2019-05-18T09:30:52.960Z,25.69
2019-05-18T09:33:22.193Z,26.04
2019-05-18T09:35:51.537Z,26.41
2019-05-18T09:38:20.806Z,26.64
2019-05-18T09:40:50.048Z,26.80
2019-05-18T09:43:19.448Z,26.74
2019-05-18T09:45:48.779Z,26.66
2019-05-18T09:48:18.005Z,26.55
2019-05-18T09:50:47.689Z,26.45
2019-05-18T09:53:16.972Z,26.44
2019-05-18T09:55:46.241Z,26.85
2019-05-18T09:58:16.187Z,27.12
2019-05-18T10:00:45.532Z,27.42
2019-05-18T10:03:17.961Z,27.81
2019-05-18T10:05:48.130Z,28.24
2019-05-18T10:08:17.414Z,28.56
2019-05-18T10:10:46.714Z,28.87
2019-05-18T10:13:16.058Z,28.97
2019-05-18T10:15:45.330Z,28.49
2019-05-18T10:18:14.903Z,27.90
2019-05-18T10:20:44.380Z,27.73
2019-05-18T10:23:14.095Z,27.67
2019-05-18T10:25:45.798Z,27.48
2019-05-18T10:28:15.018Z,27.56
2019-05-18T10:30:44.351Z,27.72
2019-05-18T10:33:13.672Z,27.78
2019-05-18T10:35:42.919Z,27.79
2019-05-18T10:38:12.233Z,27.99
2019-05-18T10:40:41.537Z,28.15
2019-05-18T10:43:10.770Z,27.97
2019-05-18T10:45:44.293Z,27.88
2019-05-18T10:48:11.241Z,27.84
2019-05-18T10:50:40.510Z,27.76
2019-05-18T10:53:09.822Z,27.78
2019-05-18T10:55:39.194Z,27.94
2019-05-18T10:58:08.445Z,28.26
2019-05-18T11:00:37.770Z,28.33
2019-05-18T11:03:09.067Z,28.20
2019-05-18T11:05:38.322Z,28.33
2019-05-18T11:08:07.655Z,28.63
2019-05-18T11:10:36.959Z,28.72
2019-05-18T11:13:06.211Z,28.72
2019-05-18T11:15:35.525Z,28.66
2019-05-18T11:18:04.966Z,28.89
2019-05-18T11:20:34.352Z,29.07
2019-05-18T11:23:04.346Z,29.30
2019-05-18T11:25:33.765Z,29.38
2019-05-18T11:28:02.989Z,29.39
2019-05-18T11:30:32.630Z,29.39
2019-05-18T11:33:01.998Z,29.25
2019-05-18T11:35:31.237Z,29.08
2019-05-18T11:38:00.505Z,28.77
2019-05-18T11:40:30.003Z,28.70
2019-05-18T11:42:59.282Z,28.61
2019-05-18T11:45:28.831Z,28.52
2019-05-18T11:47:58.158Z,28.54
2019-05-18T11:50:27.853Z,28.31
2019-05-18T11:52:57.112Z,28.25
2019-05-18T11:55:26.619Z,28.27
2019-05-18T11:57:55.845Z,28.16
2019-05-18T12:00:26.000Z,28.00
2019-05-18T12:02:55.582Z,28.01
2019-05-18T12:05:24.877Z,27.88
2019-05-18T12:07:54.143Z,27.36
2019-05-18T12:10:24.266Z,28.10
2019-05-18T12:12:53.584Z,28.27
2019-05-18T12:15:23.391Z,28.41
2019-05-18T12:17:52.778Z,28.46
2019-05-18T12:20:22.720Z,28.33
2019-05-18T12:22:52.097Z,28.27
2019-05-18T12:25:21.552Z,28.10
2019-05-18T12:27:50.824Z,27.65
2019-05-18T12:30:21.491Z,27.19
2019-05-18T12:32:51.037Z,26.97
2019-05-18T12:35:20.395Z,26.80
2019-05-18T12:37:49.708Z,26.51
2019-05-18T12:40:21.794Z,26.39
2019-05-18T12:42:51.016Z,26.51
2019-05-18T12:45:22.550Z,26.61
2019-05-18T12:47:51.862Z,26.96
2019-05-18T12:50:32.791Z,27.40
2019-05-18T12:53:02.173Z,27.96
2019-05-18T12:55:31.917Z,28.33
2019-05-18T12:58:01.282Z,28.34
2019-05-18T13:00:30.852Z,28.14
2019-05-18T13:03:00.083Z,28.03
2019-05-18T13:05:29.651Z,27.94
2019-05-18T13:07:59.855Z,28.07
2019-05-18T13:10:29.217Z,28.32
2019-05-18T13:12:59.315Z,28.78
2019-05-18T13:15:28.553Z,29.31
2019-05-18T13:17:57.998Z,29.52
2019-05-18T13:20:27.345Z,29.58
2019-05-18T13:22:56.627Z,29.63
2019-05-18T13:25:26.085Z,29.57
2019-05-18T13:27:55.540Z,29.52
2019-05-18T13:30:24.929Z,29.19
2019-05-18T13:32:54.511Z,29.05
2019-05-18T13:35:23.780Z,28.63
2019-05-18T13:37:53.012Z,28.18
2019-05-18T13:40:22.836Z,27.69
2019-05-18T13:42:52.078Z,27.08
2019-05-18T13:45:21.700Z,26.50
2019-05-18T13:47:50.985Z,26.20
2019-05-18T13:50:20.447Z,26.11
2019-05-18T13:52:49.950Z,26.25
2019-05-18T13:55:21.993Z,26.39
2019-05-18T13:57:51.316Z,26.58
2019-05-18T14:00:21.767Z,27.22
2019-05-18T14:02:51.097Z,27.91
2019-05-18T14:05:20.419Z,28.36
2019-05-18T14:07:49.693Z,28.69
2019-05-18T14:10:19.850Z,28.99
2019-05-18T14:12:50.133Z,29.14
2019-05-18T14:15:22.574Z,29.12
2019-05-18T14:17:50.503Z,28.84
2019-05-18T14:20:19.901Z,28.26
2019-05-18T14:22:49.123Z,28.07
2019-05-18T14:25:20.368Z,28.08
2019-05-18T14:27:49.639Z,27.64
2019-05-18T14:30:19.466Z,26.90
2019-05-18T14:32:49.066Z,26.20
2019-05-18T14:35:18.438Z,25.79
2019-05-18T14:37:47.738Z,25.45
2019-05-18T14:40:17.664Z,25.31
2019-05-18T14:42:46.930Z,25.10
2019-05-18T14:45:16.369Z,25.04
2019-05-18T14:47:45.789Z,25.00
2019-05-18T14:50:17.343Z,25.37
2019-05-18T14:52:47.055Z,25.82
2019-05-18T14:55:16.484Z,25.48
2019-05-18T14:57:45.759Z,24.93
2019-05-18T15:00:15.668Z,24.44
2019-05-18T15:02:44.899Z,23.97
2019-05-18T15:05:14.644Z,23.68
2019-05-18T15:07:44.088Z,23.37
2019-05-18T15:10:13.806Z,23.12
2019-05-18T15:12:43.067Z,22.82
2019-05-18T15:15:12.899Z,22.61
2019-05-18T15:17:42.133Z,22.50
2019-05-18T15:20:13.560Z,22.35
2019-05-18T15:22:43.069Z,22.22
2019-05-18T15:25:13.013Z,22.18
2019-05-18T15:27:42.273Z,22.09
2019-05-18T15:30:12.811Z,22.12
2019-05-18T15:32:42.478Z,22.28
2019-05-18T15:35:11.932Z,22.67
2019-05-18T15:37:43.565Z,23.37
2019-05-18T15:40:12.769Z,24.27
2019-05-18T15:42:42.208Z,25.18
2019-05-18T15:45:13.056Z,25.86
2019-05-18T15:47:42.333Z,26.49
2019-05-18T15:50:12.519Z,27.07
2019-05-18T15:52:41.750Z,27.27
2019-05-18T15:55:11.392Z,27.46
2019-05-18T15:57:40.937Z,27.79
2019-05-18T16:00:10.986Z,27.96
2019-05-18T16:02:40.210Z,28.06
2019-05-18T16:05:10.476Z,28.06
2019-05-18T16:07:39.713Z,27.21
2019-05-18T16:10:09.350Z,26.45
2019-05-18T16:12:38.980Z,25.76
2019-05-18T16:15:08.848Z,25.11
2019-05-18T16:17:39.814Z,24.51
2019-05-18T16:20:11.560Z,23.90
2019-05-18T16:22:44.116Z,23.39
2019-05-18T16:25:12.285Z,23.10
2019-05-18T16:27:41.521Z,22.87
2019-05-18T16:30:11.038Z,22.74
2019-05-18T16:32:40.566Z,22.72
2019-05-18T16:35:10.951Z,22.78
2019-05-18T16:37:40.204Z,22.51
2019-05-18T16:40:10.526Z,22.37
2019-05-18T16:42:39.963Z,22.33
2019-05-18T16:45:09.837Z,22.07
2019-05-18T16:47:39.147Z,21.69
2019-05-18T16:50:09.224Z,21.25
2019-05-18T16:52:38.452Z,20.99
2019-05-18T16:55:09.385Z,21.10
2019-05-18T16:57:38.675Z,21.43
2019-05-18T17:00:09.801Z,21.30
2019-05-18T17:02:39.521Z,20.94
2019-05-18T17:05:09.583Z,20.61
2019-05-18T17:07:38.858Z,20.47
2019-05-18T17:10:08.957Z,20.30
2019-05-18T17:12:38.233Z,20.23
2019-05-18T17:15:08.753Z,20.17
2019-05-18T17:17:38.185Z,19.93
2019-05-18T17:20:07.856Z,19.76
2019-05-18T17:22:37.085Z,19.67
2019-05-18T17:25:06.905Z,19.60
2019-05-18T17:27:36.189Z,19.51
2019-05-18T17:30:05.857Z,19.35
2019-05-18T17:32:35.624Z,19.25
2019-05-18T17:35:06.118Z,19.05
2019-05-18T17:37:35.452Z,18.94
2019-05-18T17:40:05.677Z,18.71
2019-05-18T17:42:34.933Z,18.66
2019-05-18T17:45:04.280Z,18.58
2019-05-18T17:47:33.782Z,18.41
2019-05-18T17:50:03.087Z,18.33
2019-05-18T17:52:32.316Z,18.20
2019-05-18T17:55:01.882Z,18.10
2019-05-18T17:57:31.170Z,18.07
2019-05-18T18:00:00.396Z,18.06
2019-05-18T18:02:29.889Z,18.11
2019-05-18T18:04:59.169Z,18.09
2019-05-18T18:07:28.383Z,18.05
2019-05-18T18:09:57.991Z,17.99
2019-05-18T18:12:27.379Z,17.94
2019-05-18T18:14:56.592Z,17.81
2019-05-18T18:17:27.030Z,17.74
2019-05-18T18:19:56.311Z,17.79
2019-05-18T18:22:25.850Z,17.80
2019-05-18T18:24:55.331Z,17.77
2019-05-18T18:27:27.792Z,17.72
2019-05-18T18:29:55.626Z,17.67
2019-05-18T18:32:25.014Z,17.62
2019-05-18T18:34:54.238Z,17.60
2019-05-18T18:37:23.489Z,17.52
2019-05-18T18:39:55.442Z,17.51
2019-05-18T18:42:24.969Z,17.47
2019-05-18T18:44:54.553Z,17.39
2019-05-18T18:47:25.879Z,17.25
2019-05-18T18:49:55.393Z,17.04
2019-05-18T18:52:24.620Z,17.10
2019-05-18T18:54:53.860Z,17.07
2019-05-18T18:57:38.523Z,17.10
2019-05-18T18:59:57.094Z,17.07
2019-05-18T19:02:26.419Z,17.01
2019-05-18T19:04:55.672Z,16.96
2019-05-18T19:07:24.930Z,16.92
2019-05-18T19:09:54.328Z,16.86
2019-05-18T19:12:23.598Z,16.79
2019-05-18T19:14:52.830Z,16.72
2019-05-18T19:17:22.219Z,16.64
2019-05-18T19:19:51.557Z,16.51
2019-05-18T19:22:20.795Z,16.40
2019-05-18T19:24:50.298Z,16.36
2019-05-18T19:27:19.545Z,16.30
2019-05-18T19:29:48.859Z,16.23
2019-05-18T19:32:18.255Z,16.19
2019-05-18T19:34:47.494Z,16.11
2019-05-18T19:37:16.766Z,16.10
2019-05-18T19:39:46.114Z,16.08
2019-05-18T19:42:15.560Z,16.03
2019-05-18T19:44:44.794Z,16.03
2019-05-18T19:47:14.122Z,16.02
2019-05-18T19:49:45.427Z,15.98
2019-05-18T19:52:14.680Z,15.93
2019-05-18T19:54:44.473Z,15.87
2019-05-18T19:57:13.807Z,15.83
2019-05-18T19:59:43.064Z,15.82
2019-05-18T20:02:12.403Z,15.82
2019-05-18T20:04:41.660Z,15.85
2019-05-18T20:07:10.881Z,15.85
2019-05-18T20:09:40.262Z,15.84
2019-05-18T20:12:10.994Z,15.81
2019-05-18T20:14:40.221Z,15.75
2019-05-18T20:17:09.547Z,15.77
2019-05-18T20:19:39.874Z,15.79
2019-05-18T20:22:09.254Z,15.78
2019-05-18T20:24:38.736Z,15.80
2019-05-18T20:27:08.006Z,15.81
2019-05-18T20:29:37.223Z,15.84
2019-05-18T20:32:06.735Z,15.80
2019-05-18T20:34:36.101Z,15.76
2019-05-18T20:37:05.620Z,15.69
2019-05-18T20:39:35.302Z,15.66
2019-05-18T20:42:04.676Z,15.61
2019-05-18T20:44:34.004Z,15.39
2019-05-18T20:47:03.646Z,15.33
2019-05-18T20:49:32.920Z,15.33
2019-05-18T20:52:02.146Z,15.37
2019-05-18T20:54:31.482Z,15.36
2019-05-18T20:57:02.119Z,15.35
2019-05-18T20:59:31.792Z,15.40
2019-05-18T21:02:01.134Z,15.52
2019-05-18T21:04:30.385Z,15.52
2019-05-18T21:07:01.020Z,15.61
2019-05-18T21:09:30.635Z,15.61
2019-05-18T21:11:59.923Z,15.61
2019-05-18T21:14:29.150Z,15.67
2019-05-18T21:16:58.842Z,15.63
2019-05-18T21:19:29.981Z,15.58
2019-05-18T21:21:59.252Z,15.54
2019-05-18T21:24:28.574Z,15.55
2019-05-18T21:26:57.890Z,15.61
2019-05-18T21:29:27.113Z,15.66
2019-05-18T21:31:56.435Z,15.69
2019-05-18T21:34:25.804Z,15.71
2019-05-18T21:36:55.033Z,15.71
2019-05-18T21:39:25.936Z,15.69
2019-05-18T21:41:55.479Z,15.65
2019-05-18T21:44:24.705Z,15.69
2019-05-18T21:46:54.317Z,15.77
2019-05-18T21:49:23.728Z,15.77
2019-05-18T21:51:53.216Z,15.73
2019-05-18T21:54:23.220Z,15.72
2019-05-18T21:56:52.475Z,15.76
2019-05-18T21:59:21.720Z,15.80
2019-05-18T22:01:51.154Z,15.73
2019-05-18T22:04:20.401Z,15.73
2019-05-18T22:06:49.638Z,15.67
2019-05-18T22:09:19.045Z,15.59
2019-05-18T22:11:48.320Z,15.50
2019-05-18T22:14:17.563Z,15.47
2019-05-18T22:16:46.897Z,15.46
2019-05-18T22:19:16.169Z,15.44
2019-05-18T22:21:45.434Z,15.48
2019-05-18T22:24:15.051Z,15.49
2019-05-18T22:26:44.337Z,15.49
2019-05-18T22:29:13.599Z,15.45
2019-05-18T22:31:44.691Z,15.45
2019-05-18T22:34:14.062Z,15.42
2019-05-18T22:36:43.358Z,15.41
2019-05-18T22:39:14.713Z,15.34
2019-05-18T22:41:43.972Z,15.21
2019-05-18T22:44:13.307Z,15.21
2019-05-18T22:46:42.589Z,15.18
2019-05-18T22:49:11.973Z,15.14
2019-05-18T22:51:41.189Z,15.14
2019-05-18T22:54:10.515Z,15.13
2019-05-18T22:56:39.755Z,15.09
2019-05-18T22:59:09.004Z,15.08
2019-05-18T23:01:38.575Z,15.06
2019-05-18T23:04:07.833Z,15.02
2019-05-18T23:06:37.064Z,15.02
2019-05-18T23:09:07.774Z,15.01
2019-05-18T23:11:37.355Z,15.02
2019-05-18T23:14:06.604Z,15.01
2019-05-18T23:16:36.077Z,14.99
2019-05-18T23:19:05.540Z,14.98
2019-05-18T23:21:34.819Z,14.95
2019-05-18T23:24:04.307Z,14.93
2019-05-18T23:26:33.571Z,14.96
2019-05-18T23:29:02.819Z,14.97
2019-05-18T23:31:32.212Z,15.01
2019-05-18T23:34:01.565Z,14.99
2019-05-18T23:36:30.854Z,14.93
2019-05-18T23:39:03.053Z,14.92
2019-05-18T23:41:32.529Z,14.87
2019-05-18T23:44:01.798Z,14.82
2019-05-18T23:46:31.108Z,14.78
2019-05-18T23:49:10.312Z,14.77
2019-05-18T23:51:31.528Z,14.74
2019-05-18T23:54:00.964Z,14.69
2019-05-18T23:56:30.608Z,14.63
2019-05-18T23:58:59.956Z,14.57
